sensor_id;sensor_type;location;lat;lon;timestamp;temperature;humidity
62998;DHT22;55949;52.590;7.330;2023-08-07T00:00:32;14.60;99.90
62998;DHT22;55949;52.590;7.330;2023-08-07T00:01:32;14.70;99.90
62998;DHT22;55949;52.590;7.330;2023-08-07T00:02:33;14.80;99.90
62998;DHT22;55949;52.590;7.330;2023-08-07T00:03:34;14.60;99.90
62998;DHT22;55949;52.590;7.330;2023-08-07T00:04:36;14.70;99.90
62998;DHT22;55949;52.590;7.330;2023-08-07T00:05:36;14.60;99.90
62998;DHT22;55949;52.590;7.330;2023-08-07T00:06:37;14.60;99.90
62998;DHT22;55949;52.590;7.330;2023-08-07T00:07:38;14.60;99.90
62998;DHT22;55949;52.590;7.330;2023-08-07T00:08:38;14.70;99.90
62998;DHT22;55949;52.590;7.330;2023-08-07T00:09:39;14.60;99.90
62998;DHT22;55949;52.590;7.330;2023-08-07T00:10:40;14.60;99.90
62998;DHT22;55949;52.590;7.330;2023-08-07T00:11:40;14.60;99.90
62998;DHT22;55949;52.590;7.330;2023-08-07T00:12:41;14.80;99.90
62998;DHT22;55949;52.590;7.330;2023-08-07T00:13:43;14.80;99.90
62998;DHT22;55949;52.590;7.330;2023-08-07T00:14:44;14.90;99.90
62998;DHT22;55949;52.590;7.330;2023-08-07T00:15:47;14.80;99.90
62998;DHT22;55949;52.590;7.330;2023-08-07T00:16:48;14.80;99.90
62998;DHT22;55949;52.590;7.330;2023-08-07T00:17:48;14.90;99.90
62998;DHT22;55949;52.590;7.330;2023-08-07T00:18:49;15.00;99.90
62998;DHT22;55949;52.590;7.330;2023-08-07T00:19:50;15.20;99.90
62998;DHT22;55949;52.590;7.330;2023-08-07T00:20:50;15.30;99.90
62998;DHT22;55949;52.590;7.330;2023-08-07T00:21:51;15.30;99.90
62998;DHT22;55949;52.590;7.330;2023-08-07T00:22:51;15.30;99.90
62998;DHT22;55949;52.590;7.330;2023-08-07T00:23:52;15.40;99.90
62998;DHT22;55949;52.590;7.330;2023-08-07T00:24:53;15.30;99.90
62998;DHT22;55949;52.590;7.330;2023-08-07T00:25:54;15.40;99.90
62998;DHT22;55949;52.590;7.330;2023-08-07T00:26:54;15.50;99.90
62998;DHT22;55949;52.590;7.330;2023-08-07T00:27:55;15.50;99.90
62998;DHT22;55949;52.590;7.330;2023-08-07T00:28:56;15.40;99.90
62998;DHT22;55949;52.590;7.330;2023-08-07T00:29:56;15.40;99.90
62998;DHT22;55949;52.590;7.330;2023-08-07T00:30:57;15.30;99.90
62998;DHT22;55949;52.590;7.330;2023-08-07T00:31:58;15.40;99.90
62998;DHT22;55949;52.590;7.330;2023-08-07T00:32:58;15.50;99.90
62998;DHT22;55949;52.590;7.330;2023-08-07T00:33:59;15.50;99.90
62998;DHT22;55949;52.590;7.330;2023-08-07T00:35:00;15.60;99.90
62998;DHT22;55949;52.590;7.330;2023-08-07T00:36:01;15.50;99.90
62998;DHT22;55949;52.590;7.330;2023-08-07T00:37:01;15.60;99.90
62998;DHT22;55949;52.590;7.330;2023-08-07T00:38:02;15.60;99.90
62998;DHT22;55949;52.590;7.330;2023-08-07T00:39:03;15.60;99.90
62998;DHT22;55949;52.590;7.330;2023-08-07T00:40:05;15.60;99.90
62998;DHT22;55949;52.590;7.330;2023-08-07T00:41:05;15.50;99.90
62998;DHT22;55949;52.590;7.330;2023-08-07T00:42:07;15.50;99.90
62998;DHT22;55949;52.590;7.330;2023-08-07T00:43:08;15.60;99.90
62998;DHT22;55949;52.590;7.330;2023-08-07T00:44:09;15.50;99.90
62998;DHT22;55949;52.590;7.330;2023-08-07T00:45:10;15.40;99.90
62998;DHT22;55949;52.590;7.330;2023-08-07T00:46:10;15.50;99.90
62998;DHT22;55949;52.590;7.330;2023-08-07T00:47:11;15.50;99.90
62998;DHT22;55949;52.590;7.330;2023-08-07T00:48:12;15.10;99.90
62998;DHT22;55949;52.590;7.330;2023-08-07T00:49:13;15.10;99.90
62998;DHT22;55949;52.590;7.330;2023-08-07T00:50:14;15.10;99.90
62998;DHT22;55949;52.590;7.330;2023-08-07T00:51:15;15.20;99.90
62998;DHT22;55949;52.590;7.330;2023-08-07T00:52:16;15.30;99.90
62998;DHT22;55949;52.590;7.330;2023-08-07T00:53:17;15.40;99.90
62998;DHT22;55949;52.590;7.330;2023-08-07T00:54:18;15.40;99.90
62998;DHT22;55949;52.590;7.330;2023-08-07T00:55:19;15.30;99.90
62998;DHT22;55949;52.590;7.330;2023-08-07T00:56:20;15.20;99.90
62998;DHT22;55949;52.590;7.330;2023-08-07T00:57:22;15.20;99.90
62998;DHT22;55949;52.590;7.330;2023-08-07T00:58:25;15.30;99.90
62998;DHT22;55949;52.590;7.330;2023-08-07T00:59:25;15.40;99.90
62998;DHT22;55949;52.590;7.330;2023-08-07T01:00:28;15.50;99.90
62998;DHT22;55949;52.590;7.330;2023-08-07T01:01:29;15.20;99.90
62998;DHT22;55949;52.590;7.330;2023-08-07T01:02:31;15.30;99.90
62998;DHT22;55949;52.590;7.330;2023-08-07T01:03:32;15.40;99.90
62998;DHT22;55949;52.590;7.330;2023-08-07T01:04:32;15.40;99.90
62998;DHT22;55949;52.590;7.330;2023-08-07T01:05:34;15.50;99.90
62998;DHT22;55949;52.590;7.330;2023-08-07T01:06:34;15.40;99.90
62998;DHT22;55949;52.590;7.330;2023-08-07T01:07:35;15.20;99.90
62998;DHT22;55949;52.590;7.330;2023-08-07T01:08:36;15.30;99.90
62998;DHT22;55949;52.590;7.330;2023-08-07T01:09:37;15.30;99.90
62998;DHT22;55949;52.590;7.330;2023-08-07T01:10:45;15.50;99.90
62998;DHT22;55949;52.590;7.330;2023-08-07T01:13:31;15.30;99.90
62998;DHT22;55949;52.590;7.330;2023-08-07T01:14:58;15.20;99.90
62998;DHT22;55949;52.590;7.330;2023-08-07T01:16:10;15.40;99.90
62998;DHT22;55949;52.590;7.330;2023-08-07T01:17:17;15.30;99.90
62998;DHT22;55949;52.590;7.330;2023-08-07T01:18:21;15.10;99.90
62998;DHT22;55949;52.590;7.330;2023-08-07T01:19:27;15.10;99.90
62998;DHT22;55949;52.590;7.330;2023-08-07T01:20:28;15.20;99.90
62998;DHT22;55949;52.590;7.330;2023-08-07T01:21:29;15.30;99.90
62998;DHT22;55949;52.590;7.330;2023-08-07T01:22:29;15.10;99.90
62998;DHT22;55949;52.590;7.330;2023-08-07T01:23:30;15.10;99.90
62998;DHT22;55949;52.590;7.330;2023-08-07T01:24:31;15.00;99.90
62998;DHT22;55949;52.590;7.330;2023-08-07T01:25:32;15.00;99.90
62998;DHT22;55949;52.590;7.330;2023-08-07T01:26:33;15.00;99.90
62998;DHT22;55949;52.590;7.330;2023-08-07T01:27:50;15.10;99.90
62998;DHT22;55949;52.590;7.330;2023-08-07T01:29:15;15.10;99.90
62998;DHT22;55949;52.590;7.330;2023-08-07T01:30:33;15.10;99.90
62998;DHT22;55949;52.590;7.330;2023-08-07T01:31:37;15.20;99.90
62998;DHT22;55949;52.590;7.330;2023-08-07T01:34:18;15.20;99.90
62998;DHT22;55949;52.590;7.330;2023-08-07T01:35:23;15.30;99.90
62998;DHT22;55949;52.590;7.330;2023-08-07T01:36:28;15.40;99.90
62998;DHT22;55949;52.590;7.330;2023-08-07T01:37:34;15.30;99.90
62998;DHT22;55949;52.590;7.330;2023-08-07T01:38:36;15.40;99.90
62998;DHT22;55949;52.590;7.330;2023-08-07T01:39:38;15.50;99.90
62998;DHT22;55949;52.590;7.330;2023-08-07T01:40:40;15.40;99.90
62998;DHT22;55949;52.590;7.330;2023-08-07T01:41:42;15.50;99.90
62998;DHT22;55949;52.590;7.330;2023-08-07T01:42:43;15.60;99.90
62998;DHT22;55949;52.590;7.330;2023-08-07T01:43:45;15.60;99.90
62998;DHT22;55949;52.590;7.330;2023-08-07T01:44:46;15.60;99.90
62998;DHT22;55949;52.590;7.330;2023-08-07T01:45:46;15.60;99.90
62998;DHT22;55949;52.590;7.330;2023-08-07T01:46:47;15.60;99.90
62998;DHT22;55949;52.590;7.330;2023-08-07T01:47:48;15.50;99.90
62998;DHT22;55949;52.590;7.330;2023-08-07T01:48:49;15.50;99.90
62998;DHT22;55949;52.590;7.330;2023-08-07T01:49:50;15.50;99.90
62998;DHT22;55949;52.590;7.330;2023-08-07T01:50:52;15.50;99.90
62998;DHT22;55949;52.590;7.330;2023-08-07T01:51:53;15.40;99.90
62998;DHT22;55949;52.590;7.330;2023-08-07T01:52:54;15.50;99.90
62998;DHT22;55949;52.590;7.330;2023-08-07T01:53:55;15.50;99.90
62998;DHT22;55949;52.590;7.330;2023-08-07T01:54:55;15.20;99.90
62998;DHT22;55949;52.590;7.330;2023-08-07T01:55:56;15.10;99.90
62998;DHT22;55949;52.590;7.330;2023-08-07T01:56:57;15.10;99.90
62998;DHT22;55949;52.590;7.330;2023-08-07T01:57:57;15.10;99.90
62998;DHT22;55949;52.590;7.330;2023-08-07T01:58:58;15.20;99.90
62998;DHT22;55949;52.590;7.330;2023-08-07T01:59:58;15.30;99.90
62998;DHT22;55949;52.590;7.330;2023-08-07T02:00:59;15.40;99.90
62998;DHT22;55949;52.590;7.330;2023-08-07T02:02:00;15.40;99.90
62998;DHT22;55949;52.590;7.330;2023-08-07T02:03:00;15.40;99.90
62998;DHT22;55949;52.590;7.330;2023-08-07T02:04:01;15.40;99.90
62998;DHT22;55949;52.590;7.330;2023-08-07T02:05:02;15.40;99.90
62998;DHT22;55949;52.590;7.330;2023-08-07T02:06:03;15.50;99.90
62998;DHT22;55949;52.590;7.330;2023-08-07T02:07:04;15.60;99.90
62998;DHT22;55949;52.590;7.330;2023-08-07T02:08:04;15.40;99.90
62998;DHT22;55949;52.590;7.330;2023-08-07T02:09:05;15.30;99.90
62998;DHT22;55949;52.590;7.330;2023-08-07T02:10:06;15.20;99.90
62998;DHT22;55949;52.590;7.330;2023-08-07T02:11:07;15.30;99.90
62998;DHT22;55949;52.590;7.330;2023-08-07T02:12:08;15.40;99.90
62998;DHT22;55949;52.590;7.330;2023-08-07T02:13:08;15.30;99.90
62998;DHT22;55949;52.590;7.330;2023-08-07T02:14:09;15.50;99.90
62998;DHT22;55949;52.590;7.330;2023-08-07T02:15:10;15.40;99.90
62998;DHT22;55949;52.590;7.330;2023-08-07T02:16:10;15.50;99.90
62998;DHT22;55949;52.590;7.330;2023-08-07T02:17:11;15.40;99.90
62998;DHT22;55949;52.590;7.330;2023-08-07T02:18:12;15.40;99.90
62998;DHT22;55949;52.590;7.330;2023-08-07T02:19:12;15.40;99.90
62998;DHT22;55949;52.590;7.330;2023-08-07T02:20:13;15.30;99.90
62998;DHT22;55949;52.590;7.330;2023-08-07T02:21:14;15.40;99.90
62998;DHT22;55949;52.590;7.330;2023-08-07T02:22:14;15.40;99.90
62998;DHT22;55949;52.590;7.330;2023-08-07T02:23:15;15.50;99.90
62998;DHT22;55949;52.590;7.330;2023-08-07T02:24:15;15.30;99.90
62998;DHT22;55949;52.590;7.330;2023-08-07T02:25:16;15.40;99.90
62998;DHT22;55949;52.590;7.330;2023-08-07T02:26:17;15.40;99.90
62998;DHT22;55949;52.590;7.330;2023-08-07T02:27:18;15.40;99.90
62998;DHT22;55949;52.590;7.330;2023-08-07T02:28:18;15.50;99.90
62998;DHT22;55949;52.590;7.330;2023-08-07T02:29:19;15.50;99.90
62998;DHT22;55949;52.590;7.330;2023-08-07T02:30:20;15.30;99.90
62998;DHT22;55949;52.590;7.330;2023-08-07T02:31:20;15.40;99.90
62998;DHT22;55949;52.590;7.330;2023-08-07T02:32:21;15.40;99.90
62998;DHT22;55949;52.590;7.330;2023-08-07T02:33:22;15.50;99.90
62998;DHT22;55949;52.590;7.330;2023-08-07T02:34:22;15.40;99.90
62998;DHT22;55949;52.590;7.330;2023-08-07T02:35:23;15.40;99.90
62998;DHT22;55949;52.590;7.330;2023-08-07T02:36:23;15.40;99.90
62998;DHT22;55949;52.590;7.330;2023-08-07T02:37:24;15.30;99.90
62998;DHT22;55949;52.590;7.330;2023-08-07T02:38:25;15.30;99.90
62998;DHT22;55949;52.590;7.330;2023-08-07T02:39:26;15.20;99.90
62998;DHT22;55949;52.590;7.330;2023-08-07T02:40:27;15.20;99.90
62998;DHT22;55949;52.590;7.330;2023-08-07T02:41:27;15.20;99.90
62998;DHT22;55949;52.590;7.330;2023-08-07T02:42:28;15.30;99.90
62998;DHT22;55949;52.590;7.330;2023-08-07T02:43:29;15.20;99.90
62998;DHT22;55949;52.590;7.330;2023-08-07T02:44:29;15.20;99.90
62998;DHT22;55949;52.590;7.330;2023-08-07T02:45:30;15.30;99.90
62998;DHT22;55949;52.590;7.330;2023-08-07T02:46:31;15.20;99.90
62998;DHT22;55949;52.590;7.330;2023-08-07T02:47:31;15.30;99.90
62998;DHT22;55949;52.590;7.330;2023-08-07T02:48:32;15.30;99.90
62998;DHT22;55949;52.590;7.330;2023-08-07T02:49:33;15.20;99.90
62998;DHT22;55949;52.590;7.330;2023-08-07T02:50:33;15.10;99.90
62998;DHT22;55949;52.590;7.330;2023-08-07T02:51:34;15.00;99.90
62998;DHT22;55949;52.590;7.330;2023-08-07T02:52:35;15.10;99.90
62998;DHT22;55949;52.590;7.330;2023-08-07T02:53:35;15.10;99.90
62998;DHT22;55949;52.590;7.330;2023-08-07T02:54:36;15.00;99.90
62998;DHT22;55949;52.590;7.330;2023-08-07T02:55:37;15.10;99.90
62998;DHT22;55949;52.590;7.330;2023-08-07T02:56:37;15.00;99.90
62998;DHT22;55949;52.590;7.330;2023-08-07T02:57:38;15.10;99.90
62998;DHT22;55949;52.590;7.330;2023-08-07T02:58:39;15.00;99.90
62998;DHT22;55949;52.590;7.330;2023-08-07T02:59:39;15.00;99.90
62998;DHT22;55949;52.590;7.330;2023-08-07T03:00:40;15.10;99.90
62998;DHT22;55949;52.590;7.330;2023-08-07T03:01:41;15.10;99.90
62998;DHT22;55949;52.590;7.330;2023-08-07T03:02:41;15.20;99.90
62998;DHT22;55949;52.590;7.330;2023-08-07T03:03:42;15.00;99.90
62998;DHT22;55949;52.590;7.330;2023-08-07T03:04:42;15.00;99.90
62998;DHT22;55949;52.590;7.330;2023-08-07T03:05:50;15.00;99.90
62998;DHT22;55949;52.590;7.330;2023-08-07T03:06:51;15.10;99.90
62998;DHT22;55949;52.590;7.330;2023-08-07T03:07:51;15.00;99.90
62998;DHT22;55949;52.590;7.330;2023-08-07T03:08:52;14.90;99.90
62998;DHT22;55949;52.590;7.330;2023-08-07T03:09:53;15.00;99.90
62998;DHT22;55949;52.590;7.330;2023-08-07T03:10:56;15.00;99.90
62998;DHT22;55949;52.590;7.330;2023-08-07T03:11:57;15.10;99.90
62998;DHT22;55949;52.590;7.330;2023-08-07T03:13:03;15.10;99.90
62998;DHT22;55949;52.590;7.330;2023-08-07T03:14:04;15.20;99.90
62998;DHT22;55949;52.590;7.330;2023-08-07T03:15:05;15.20;99.90
62998;DHT22;55949;52.590;7.330;2023-08-07T03:16:06;15.20;99.90
62998;DHT22;55949;52.590;7.330;2023-08-07T03:17:07;15.20;99.90
62998;DHT22;55949;52.590;7.330;2023-08-07T03:18:08;15.20;99.90
62998;DHT22;55949;52.590;7.330;2023-08-07T03:19:09;15.30;99.90
62998;DHT22;55949;52.590;7.330;2023-08-07T03:20:10;15.30;99.90
62998;DHT22;55949;52.590;7.330;2023-08-07T03:21:11;15.10;99.90
62998;DHT22;55949;52.590;7.330;2023-08-07T03:22:12;15.10;99.90
62998;DHT22;55949;52.590;7.330;2023-08-07T03:23:12;15.00;99.90
62998;DHT22;55949;52.590;7.330;2023-08-07T03:24:13;15.00;99.90
62998;DHT22;55949;52.590;7.330;2023-08-07T03:25:14;14.90;99.90
62998;DHT22;55949;52.590;7.330;2023-08-07T03:26:14;14.80;99.90
62998;DHT22;55949;52.590;7.330;2023-08-07T03:27:15;15.00;99.90
62998;DHT22;55949;52.590;7.330;2023-08-07T03:28:16;15.10;99.90
62998;DHT22;55949;52.590;7.330;2023-08-07T03:29:17;15.00;99.90
62998;DHT22;55949;52.590;7.330;2023-08-07T03:30:18;15.00;99.90
62998;DHT22;55949;52.590;7.330;2023-08-07T03:31:18;15.00;99.90
62998;DHT22;55949;52.590;7.330;2023-08-07T03:32:19;15.00;99.90
62998;DHT22;55949;52.590;7.330;2023-08-07T03:33:20;15.00;99.90
62998;DHT22;55949;52.590;7.330;2023-08-07T03:34:20;15.00;99.90
62998;DHT22;55949;52.590;7.330;2023-08-07T03:35:21;15.00;99.90
62998;DHT22;55949;52.590;7.330;2023-08-07T03:36:22;15.00;99.90
62998;DHT22;55949;52.590;7.330;2023-08-07T03:37:22;15.10;99.90
62998;DHT22;55949;52.590;7.330;2023-08-07T03:38:23;15.20;99.90
62998;DHT22;55949;52.590;7.330;2023-08-07T03:39:24;15.20;99.90
62998;DHT22;55949;52.590;7.330;2023-08-07T03:40:25;15.20;99.90
62998;DHT22;55949;52.590;7.330;2023-08-07T03:41:25;15.10;99.90
62998;DHT22;55949;52.590;7.330;2023-08-07T03:42:27;15.10;99.90
62998;DHT22;55949;52.590;7.330;2023-08-07T03:43:27;15.20;99.90
62998;DHT22;55949;52.590;7.330;2023-08-07T03:44:28;15.20;99.90
62998;DHT22;55949;52.590;7.330;2023-08-07T03:45:29;15.10;99.90
62998;DHT22;55949;52.590;7.330;2023-08-07T03:46:29;15.20;99.90
62998;DHT22;55949;52.590;7.330;2023-08-07T03:47:30;15.20;99.90
62998;DHT22;55949;52.590;7.330;2023-08-07T03:48:31;15.20;99.90
62998;DHT22;55949;52.590;7.330;2023-08-07T03:49:32;15.20;99.90
62998;DHT22;55949;52.590;7.330;2023-08-07T03:50:32;15.20;99.90
62998;DHT22;55949;52.590;7.330;2023-08-07T03:51:37;15.20;99.90
62998;DHT22;55949;52.590;7.330;2023-08-07T03:52:37;15.20;99.90
62998;DHT22;55949;52.590;7.330;2023-08-07T03:53:38;15.10;99.90
62998;DHT22;55949;52.590;7.330;2023-08-07T03:54:40;15.20;99.90
62998;DHT22;55949;52.590;7.330;2023-08-07T03:55:41;15.10;99.90
62998;DHT22;55949;52.590;7.330;2023-08-07T03:56:42;14.90;99.90
62998;DHT22;55949;52.590;7.330;2023-08-07T03:57:43;14.90;99.90
62998;DHT22;55949;52.590;7.330;2023-08-07T03:58:44;15.10;99.90
62998;DHT22;55949;52.590;7.330;2023-08-07T03:59:45;15.10;99.90
62998;DHT22;55949;52.590;7.330;2023-08-07T04:00:45;15.00;99.90
62998;DHT22;55949;52.590;7.330;2023-08-07T04:01:46;15.20;99.90
62998;DHT22;55949;52.590;7.330;2023-08-07T04:02:47;15.20;99.90
62998;DHT22;55949;52.590;7.330;2023-08-07T04:03:47;14.90;99.90
62998;DHT22;55949;52.590;7.330;2023-08-07T04:04:48;14.90;99.90
62998;DHT22;55949;52.590;7.330;2023-08-07T04:05:53;14.90;99.90
62998;DHT22;55949;52.590;7.330;2023-08-07T04:06:54;14.90;99.90
62998;DHT22;55949;52.590;7.330;2023-08-07T04:07:54;14.90;99.90
62998;DHT22;55949;52.590;7.330;2023-08-07T04:08:55;14.80;99.90
62998;DHT22;55949;52.590;7.330;2023-08-07T04:09:56;14.90;99.90
62998;DHT22;55949;52.590;7.330;2023-08-07T04:11:04;15.10;99.90
62998;DHT22;55949;52.590;7.330;2023-08-07T04:12:05;14.90;99.90
62998;DHT22;55949;52.590;7.330;2023-08-07T04:13:06;14.90;99.90
62998;DHT22;55949;52.590;7.330;2023-08-07T04:14:06;14.90;99.90
62998;DHT22;55949;52.590;7.330;2023-08-07T04:15:07;14.90;99.90
62998;DHT22;55949;52.590;7.330;2023-08-07T04:16:09;15.00;99.90
62998;DHT22;55949;52.590;7.330;2023-08-07T04:17:09;15.00;99.90
62998;DHT22;55949;52.590;7.330;2023-08-07T04:18:11;14.90;99.90
62998;DHT22;55949;52.590;7.330;2023-08-07T04:19:12;15.00;99.90
62998;DHT22;55949;52.590;7.330;2023-08-07T04:20:13;15.00;99.90
62998;DHT22;55949;52.590;7.330;2023-08-07T04:21:14;15.00;99.90
62998;DHT22;55949;52.590;7.330;2023-08-07T04:22:15;15.00;99.90
62998;DHT22;55949;52.590;7.330;2023-08-07T04:23:15;15.10;99.90
62998;DHT22;55949;52.590;7.330;2023-08-07T04:24:16;15.00;99.90
62998;DHT22;55949;52.590;7.330;2023-08-07T04:25:17;15.00;99.90
62998;DHT22;55949;52.590;7.330;2023-08-07T04:26:17;15.00;99.90
62998;DHT22;55949;52.590;7.330;2023-08-07T04:27:18;15.00;99.90
62998;DHT22;55949;52.590;7.330;2023-08-07T04:28:19;15.10;99.90
62998;DHT22;55949;52.590;7.330;2023-08-07T04:29:19;15.10;99.90
62998;DHT22;55949;52.590;7.330;2023-08-07T04:30:20;15.10;99.90
62998;DHT22;55949;52.590;7.330;2023-08-07T04:31:21;15.20;99.90
62998;DHT22;55949;52.590;7.330;2023-08-07T04:32:21;15.20;99.90
62998;DHT22;55949;52.590;7.330;2023-08-07T04:33:22;15.00;99.90
62998;DHT22;55949;52.590;7.330;2023-08-07T04:34:23;15.10;99.90
62998;DHT22;55949;52.590;7.330;2023-08-07T04:35:23;15.00;99.90
62998;DHT22;55949;52.590;7.330;2023-08-07T04:36:24;15.00;99.90
62998;DHT22;55949;52.590;7.330;2023-08-07T04:37:25;15.20;99.90
62998;DHT22;55949;52.590;7.330;2023-08-07T04:38:26;15.30;99.90
62998;DHT22;55949;52.590;7.330;2023-08-07T04:39:26;15.40;99.90
62998;DHT22;55949;52.590;7.330;2023-08-07T04:40:27;15.50;99.90
62998;DHT22;55949;52.590;7.330;2023-08-07T04:41:28;15.60;99.90
62998;DHT22;55949;52.590;7.330;2023-08-07T04:42:28;15.60;99.90
62998;DHT22;55949;52.590;7.330;2023-08-07T04:43:29;15.50;99.90
62998;DHT22;55949;52.590;7.330;2023-08-07T04:44:30;15.50;99.90
62998;DHT22;55949;52.590;7.330;2023-08-07T04:45:31;15.60;99.90
62998;DHT22;55949;52.590;7.330;2023-08-07T04:46:31;15.60;99.90
62998;DHT22;55949;52.590;7.330;2023-08-07T04:47:34;15.60;99.90
62998;DHT22;55949;52.590;7.330;2023-08-07T04:48:35;15.50;99.90
62998;DHT22;55949;52.590;7.330;2023-08-07T04:49:36;15.40;99.90
62998;DHT22;55949;52.590;7.330;2023-08-07T04:50:36;15.10;99.90
62998;DHT22;55949;52.590;7.330;2023-08-07T04:51:37;15.00;99.90
62998;DHT22;55949;52.590;7.330;2023-08-07T04:52:38;15.00;99.90
62998;DHT22;55949;52.590;7.330;2023-08-07T04:53:39;14.90;99.90
62998;DHT22;55949;52.590;7.330;2023-08-07T04:54:39;14.80;99.90
62998;DHT22;55949;52.590;7.330;2023-08-07T04:55:40;14.90;99.90
62998;DHT22;55949;52.590;7.330;2023-08-07T04:56:40;14.90;99.90
62998;DHT22;55949;52.590;7.330;2023-08-07T04:57:42;15.00;99.90
62998;DHT22;55949;52.590;7.330;2023-08-07T04:58:43;15.20;99.90
62998;DHT22;55949;52.590;7.330;2023-08-07T04:59:44;15.20;99.90
62998;DHT22;55949;52.590;7.330;2023-08-07T05:00:45;15.00;99.90
62998;DHT22;55949;52.590;7.330;2023-08-07T05:01:45;15.10;99.90
62998;DHT22;55949;52.590;7.330;2023-08-07T05:02:46;15.20;99.90
62998;DHT22;55949;52.590;7.330;2023-08-07T05:03:48;15.20;99.90
62998;DHT22;55949;52.590;7.330;2023-08-07T05:04:49;15.10;99.90
62998;DHT22;55949;52.590;7.330;2023-08-07T05:05:49;15.10;99.90
62998;DHT22;55949;52.590;7.330;2023-08-07T05:06:50;15.10;99.90
62998;DHT22;55949;52.590;7.330;2023-08-07T05:07:51;14.90;99.90
62998;DHT22;55949;52.590;7.330;2023-08-07T05:08:52;15.00;99.90
62998;DHT22;55949;52.590;7.330;2023-08-07T05:09:52;15.00;99.90
62998;DHT22;55949;52.590;7.330;2023-08-07T05:10:54;15.10;99.90
62998;DHT22;55949;52.590;7.330;2023-08-07T05:11:54;15.20;99.90
62998;DHT22;55949;52.590;7.330;2023-08-07T05:12:55;15.10;99.90
62998;DHT22;55949;52.590;7.330;2023-08-07T05:13:56;15.10;99.90
62998;DHT22;55949;52.590;7.330;2023-08-07T05:14:57;15.00;99.90
62998;DHT22;55949;52.590;7.330;2023-08-07T05:15:58;14.90;99.90
62998;DHT22;55949;52.590;7.330;2023-08-07T05:16:58;14.90;99.90
62998;DHT22;55949;52.590;7.330;2023-08-07T05:18:02;15.10;99.90
62998;DHT22;55949;52.590;7.330;2023-08-07T05:19:03;15.20;99.90
62998;DHT22;55949;52.590;7.330;2023-08-07T05:20:04;15.30;99.90
62998;DHT22;55949;52.590;7.330;2023-08-07T05:21:06;15.10;99.90
62998;DHT22;55949;52.590;7.330;2023-08-07T05:22:09;15.10;99.90
62998;DHT22;55949;52.590;7.330;2023-08-07T05:23:10;15.20;99.90
62998;DHT22;55949;52.590;7.330;2023-08-07T05:24:11;15.30;99.90
62998;DHT22;55949;52.590;7.330;2023-08-07T05:25:12;15.30;99.90
62998;DHT22;55949;52.590;7.330;2023-08-07T05:26:16;15.30;99.90
62998;DHT22;55949;52.590;7.330;2023-08-07T05:27:17;15.30;99.90
62998;DHT22;55949;52.590;7.330;2023-08-07T05:28:18;15.40;99.90
62998;DHT22;55949;52.590;7.330;2023-08-07T05:29:19;15.50;99.90
62998;DHT22;55949;52.590;7.330;2023-08-07T05:30:19;15.30;99.90
62998;DHT22;55949;52.590;7.330;2023-08-07T05:31:20;15.30;99.90
62998;DHT22;55949;52.590;7.330;2023-08-07T05:32:21;15.40;99.90
62998;DHT22;55949;52.590;7.330;2023-08-07T05:33:21;15.50;99.90
62998;DHT22;55949;52.590;7.330;2023-08-07T05:34:22;15.60;99.90
62998;DHT22;55949;52.590;7.330;2023-08-07T05:35:23;15.70;99.90
62998;DHT22;55949;52.590;7.330;2023-08-07T05:36:23;15.70;99.90
62998;DHT22;55949;52.590;7.330;2023-08-07T05:37:24;15.50;99.90
62998;DHT22;55949;52.590;7.330;2023-08-07T05:38:25;15.60;99.90
62998;DHT22;55949;52.590;7.330;2023-08-07T05:39:26;15.70;99.90
62998;DHT22;55949;52.590;7.330;2023-08-07T05:40:26;15.70;99.90
62998;DHT22;55949;52.590;7.330;2023-08-07T05:41:27;15.80;99.90
62998;DHT22;55949;52.590;7.330;2023-08-07T05:42:28;15.90;99.90
62998;DHT22;55949;52.590;7.330;2023-08-07T05:43:29;15.90;99.90
62998;DHT22;55949;52.590;7.330;2023-08-07T05:44:29;15.80;99.90
62998;DHT22;55949;52.590;7.330;2023-08-07T05:45:30;15.70;99.90
62998;DHT22;55949;52.590;7.330;2023-08-07T05:46:31;15.80;99.90
62998;DHT22;55949;52.590;7.330;2023-08-07T05:47:32;15.70;99.90
62998;DHT22;55949;52.590;7.330;2023-08-07T05:48:33;15.50;99.90
62998;DHT22;55949;52.590;7.330;2023-08-07T05:49:34;15.60;99.90
62998;DHT22;55949;52.590;7.330;2023-08-07T05:50:35;15.70;99.90
62998;DHT22;55949;52.590;7.330;2023-08-07T05:51:35;15.60;99.90
62998;DHT22;55949;52.590;7.330;2023-08-07T05:52:36;15.70;99.90
62998;DHT22;55949;52.590;7.330;2023-08-07T05:53:37;15.70;99.90
62998;DHT22;55949;52.590;7.330;2023-08-07T05:54:37;15.70;99.90
62998;DHT22;55949;52.590;7.330;2023-08-07T05:55:41;15.70;99.90
62998;DHT22;55949;52.590;7.330;2023-08-07T05:56:43;15.80;99.90
62998;DHT22;55949;52.590;7.330;2023-08-07T05:57:43;15.80;99.90
62998;DHT22;55949;52.590;7.330;2023-08-07T05:58:44;15.80;99.90
62998;DHT22;55949;52.590;7.330;2023-08-07T05:59:44;15.80;99.90
62998;DHT22;55949;52.590;7.330;2023-08-07T06:00:45;15.90;99.90
62998;DHT22;55949;52.590;7.330;2023-08-07T06:01:46;16.00;99.90
62998;DHT22;55949;52.590;7.330;2023-08-07T06:02:47;16.00;99.90
62998;DHT22;55949;52.590;7.330;2023-08-07T06:03:48;16.00;99.90
62998;DHT22;55949;52.590;7.330;2023-08-07T06:04:49;16.10;99.90
62998;DHT22;55949;52.590;7.330;2023-08-07T06:05:50;16.10;99.90
62998;DHT22;55949;52.590;7.330;2023-08-07T06:06:50;16.10;99.90
62998;DHT22;55949;52.590;7.330;2023-08-07T06:07:51;16.00;99.90
62998;DHT22;55949;52.590;7.330;2023-08-07T06:08:52;16.00;99.90
62998;DHT22;55949;52.590;7.330;2023-08-07T06:09:52;16.00;99.90
62998;DHT22;55949;52.590;7.330;2023-08-07T06:10:53;16.00;99.90
62998;DHT22;55949;52.590;7.330;2023-08-07T06:11:54;15.90;99.90
62998;DHT22;55949;52.590;7.330;2023-08-07T06:12:54;15.80;99.90
62998;DHT22;55949;52.590;7.330;2023-08-07T06:13:55;15.90;99.90
62998;DHT22;55949;52.590;7.330;2023-08-07T06:14:56;15.90;99.90
62998;DHT22;55949;52.590;7.330;2023-08-07T06:15:57;15.80;99.90
62998;DHT22;55949;52.590;7.330;2023-08-07T06:16:57;15.80;99.90
62998;DHT22;55949;52.590;7.330;2023-08-07T06:18:00;15.80;99.90
62998;DHT22;55949;52.590;7.330;2023-08-07T06:19:01;15.90;99.90
62998;DHT22;55949;52.590;7.330;2023-08-07T06:20:04;15.90;99.90
62998;DHT22;55949;52.590;7.330;2023-08-07T06:21:05;16.00;99.90
62998;DHT22;55949;52.590;7.330;2023-08-07T06:22:07;16.00;99.90
62998;DHT22;55949;52.590;7.330;2023-08-07T06:23:08;16.00;99.90
62998;DHT22;55949;52.590;7.330;2023-08-07T06:24:08;16.00;99.90
62998;DHT22;55949;52.590;7.330;2023-08-07T06:25:09;16.10;99.90
62998;DHT22;55949;52.590;7.330;2023-08-07T06:26:10;16.10;99.90
62998;DHT22;55949;52.590;7.330;2023-08-07T06:27:10;16.10;99.90
62998;DHT22;55949;52.590;7.330;2023-08-07T06:28:11;16.30;99.90
62998;DHT22;55949;52.590;7.330;2023-08-07T06:29:12;16.30;99.90
62998;DHT22;55949;52.590;7.330;2023-08-07T06:30:12;16.30;99.90